createdAt,value
2023-05-05T00:00:02.380Z,1005.53
2023-05-05T00:01:02.444Z,1005.52
2023-05-05T00:02:02.371Z,1005.54
2023-05-05T00:03:02.454Z,1005.53
2023-05-05T00:04:02.393Z,1005.58
2023-05-05T00:05:02.300Z,1005.54
2023-05-05T00:06:02.305Z,1005.52
2023-05-05T00:07:02.312Z,1005.51
2023-05-05T00:08:03.269Z,1005.49
2023-05-05T00:09:02.271Z,1005.47
2023-05-05T00:10:02.278Z,1005.48
2023-05-05T00:11:02.273Z,1005.52
2023-05-05T00:12:02.256Z,1005.49
2023-05-05T00:13:02.255Z,1005.48
2023-05-05T00:14:02.203Z,1005.50
2023-05-05T00:15:03.192Z,1005.49
2023-05-05T00:16:02.200Z,1005.52
2023-05-05T00:17:02.260Z,1005.45
2023-05-05T00:18:03.199Z,1005.47
2023-05-05T00:19:02.155Z,1005.46
2023-05-05T00:20:02.151Z,1005.51
2023-05-05T00:21:03.123Z,1005.47
2023-05-05T00:22:02.132Z,1005.48
2023-05-05T00:23:02.115Z,1005.41
2023-05-05T00:24:02.127Z,1005.40
2023-05-05T00:25:02.107Z,1005.38
2023-05-05T00:26:02.074Z,1005.39
2023-05-05T00:27:02.088Z,1005.35
2023-05-05T00:28:02.052Z,1005.33
2023-05-05T00:29:02.048Z,1005.32
2023-05-05T00:30:02.013Z,1005.28
2023-05-05T00:31:02.236Z,1005.28
2023-05-05T00:32:02.062Z,1005.27
2023-05-05T00:33:02.142Z,1005.24
2023-05-05T00:34:02.986Z,1005.22
2023-05-05T00:35:01.997Z,1005.26
2023-05-05T00:36:01.981Z,1005.19
2023-05-05T00:37:01.935Z,1005.20
2023-05-05T00:38:02.999Z,1005.19
2023-05-05T00:39:01.949Z,1005.18
2023-05-05T00:40:01.935Z,1005.14
2023-05-05T00:41:01.912Z,1005.16
2023-05-05T00:42:01.928Z,1005.17
2023-05-05T00:43:01.942Z,1005.10
2023-05-05T00:44:01.941Z,1005.14
2023-05-05T00:45:01.975Z,1005.11
2023-05-05T00:46:02.890Z,1005.09
2023-05-05T00:47:01.856Z,1005.11
2023-05-05T00:48:01.962Z,1005.11
2023-05-05T00:49:01.870Z,1005.13
2023-05-05T00:50:02.839Z,1005.12
2023-05-05T00:51:01.801Z,1005.11
2023-05-05T00:52:01.799Z,1005.08
2023-05-05T00:53:02.827Z,1005.11
2023-05-05T00:54:01.774Z,1005.06
2023-05-05T00:55:01.754Z,1005.07
2023-05-05T00:56:01.761Z,1005.08
2023-05-05T00:57:01.781Z,1005.14
2023-05-05T00:58:01.760Z,1005.11
2023-05-05T00:59:01.747Z,1005.15
2023-05-05T01:00:01.699Z,1005.09
2023-05-05T01:01:01.700Z,1005.09
2023-05-05T01:02:01.850Z,1005.13
2023-05-05T01:03:01.786Z,1005.19
2023-05-05T01:04:01.739Z,1005.09
2023-05-05T01:05:01.630Z,1005.09
2023-05-05T01:06:01.635Z,1005.08
2023-05-05T01:07:01.643Z,1005.07
2023-05-05T01:08:01.649Z,1005.07
2023-05-05T01:09:01.641Z,1005.13
2023-05-05T01:10:18.013Z,1005.10
2023-05-05T01:11:02.580Z,1005.08
2023-05-05T01:12:01.560Z,1005.07
2023-05-05T01:13:02.632Z,1005.05
2023-05-05T01:14:01.550Z,1005.05
2023-05-05T01:15:02.579Z,1005.08
2023-05-05T01:16:01.572Z,1005.04
2023-05-05T01:17:01.522Z,1005.09
2023-05-05T01:18:01.549Z,1005.05
2023-05-05T01:19:01.483Z,1005.10
2023-05-05T01:20:02.547Z,1005.06
2023-05-05T01:21:01.519Z,1005.04
2023-05-05T01:22:01.497Z,1005.08
2023-05-05T01:23:01.443Z,1005.02
2023-05-05T01:24:01.425Z,1005.03
2023-05-05T01:25:01.429Z,1005.01
2023-05-05T01:26:01.440Z,1005.01
2023-05-05T01:27:01.419Z,1004.98
2023-05-05T01:28:01.416Z,1004.98
2023-05-05T01:29:01.376Z,1005.00
2023-05-05T01:30:02.396Z,1005.02
2023-05-05T01:31:02.354Z,1005.04
2023-05-05T01:32:01.548Z,1005.03
2023-05-05T01:33:01.334Z,1005.03
2023-05-05T01:34:02.326Z,1005.06
2023-05-05T01:35:01.381Z,1005.03
2023-05-05T01:36:01.342Z,1005.04
2023-05-05T01:37:01.442Z,1005.08
2023-05-05T01:38:01.321Z,1005.06
2023-05-05T01:39:01.292Z,1005.08
2023-05-05T01:40:02.302Z,1005.16
2023-05-05T01:41:01.260Z,1005.18
2023-05-05T01:42:01.228Z,1005.12
2023-05-05T01:43:01.254Z,1005.18
2023-05-05T01:44:01.272Z,1005.15
2023-05-05T01:45:02.203Z,1005.13
2023-05-05T01:46:01.265Z,1005.19
2023-05-05T01:47:01.191Z,1005.20
2023-05-05T01:48:01.244Z,1005.21
2023-05-05T01:49:01.162Z,1005.22
2023-05-05T01:50:01.174Z,1005.18
2023-05-05T01:51:01.154Z,1005.23
2023-05-05T01:52:01.153Z,1005.17
2023-05-05T01:53:01.121Z,1005.22
2023-05-05T01:54:01.108Z,1005.18
2023-05-05T01:55:01.096Z,1005.15
2023-05-05T01:56:02.108Z,1005.21
2023-05-05T01:57:02.088Z,1005.22
2023-05-05T01:58:02.099Z,1005.21
2023-05-05T01:59:02.093Z,1005.23
2023-05-05T02:00:01.065Z,1005.27
2023-05-05T02:01:01.080Z,1005.22
2023-05-05T02:02:01.102Z,1005.23
2023-05-05T02:03:01.107Z,1005.20
2023-05-05T02:04:01.016Z,1005.22
2023-05-05T02:05:02.013Z,1005.19
2023-05-05T02:06:01.987Z,1005.21
2023-05-05T02:07:00.962Z,1005.18
2023-05-05T02:08:00.988Z,1005.16
2023-05-05T02:09:00.974Z,1005.17
2023-05-05T02:10:00.936Z,1005.17
2023-05-05T02:11:00.929Z,1005.15
2023-05-05T02:12:01.930Z,1005.17
2023-05-05T02:13:01.020Z,1005.17
2023-05-05T02:14:00.942Z,1005.17
2023-05-05T02:15:00.919Z,1005.13
2023-05-05T02:16:00.890Z,1005.16
2023-05-05T02:17:00.920Z,1005.14
2023-05-05T02:18:00.971Z,1005.14
2023-05-05T02:19:00.853Z,1005.16
2023-05-05T02:20:00.815Z,1005.19
2023-05-05T02:21:01.828Z,1005.22
2023-05-05T02:22:00.790Z,1005.19
2023-05-05T02:23:00.831Z,1005.25
2023-05-05T02:24:00.810Z,1005.22
2023-05-05T02:25:00.777Z,1005.17
2023-05-05T02:26:00.779Z,1005.13
2023-05-05T02:27:00.797Z,1005.12
2023-05-05T02:28:00.765Z,1005.08
2023-05-05T02:29:00.724Z,1005.06
2023-05-05T02:30:00.733Z,1005.08
2023-05-05T02:31:00.801Z,1005.05
2023-05-05T02:32:00.692Z,1005.11
2023-05-05T02:33:02.006Z,1005.12
2023-05-05T02:34:00.697Z,1005.05
2023-05-05T02:35:00.685Z,1005.11
2023-05-05T02:36:00.653Z,1005.06
2023-05-05T02:37:00.685Z,1005.07
2023-05-05T02:38:00.658Z,1005.00
2023-05-05T02:39:01.627Z,1005.05
2023-05-05T02:40:00.670Z,1005.07
2023-05-05T02:41:00.647Z,1005.00
2023-05-05T02:42:00.596Z,1004.97
2023-05-05T02:43:00.620Z,1004.98
2023-05-05T02:44:00.600Z,1004.98
2023-05-05T02:45:00.596Z,1004.95
2023-05-05T02:46:00.576Z,1005.02
2023-05-05T02:47:01.552Z,1004.96
2023-05-05T02:48:00.553Z,1004.90
2023-05-05T02:49:00.532Z,1004.94
2023-05-05T02:50:01.524Z,1004.90
2023-05-05T02:51:00.512Z,1004.92
2023-05-05T02:52:00.505Z,1004.95
2023-05-05T02:53:01.487Z,1004.90
2023-05-05T02:54:00.503Z,1004.89
2023-05-05T02:55:00.468Z,1004.92
2023-05-05T02:56:00.482Z,1004.92
2023-05-05T02:57:00.430Z,1004.92
2023-05-05T02:58:00.459Z,1004.92
2023-05-05T02:59:01.412Z,1004.95
2023-05-05T03:00:00.437Z,1004.95
2023-05-05T03:01:00.408Z,1004.95
2023-05-05T03:02:00.414Z,1004.91
2023-05-05T03:03:00.458Z,1004.89
2023-05-05T03:04:00.343Z,1004.88
2023-05-05T03:05:01.348Z,1004.87
2023-05-05T03:06:00.338Z,1004.91
2023-05-05T03:07:00.305Z,1004.88
2023-05-05T03:08:00.297Z,1004.83
2023-05-05T03:09:00.342Z,1004.85
2023-05-05T03:10:00.281Z,1004.85
2023-05-05T03:11:01.291Z,1004.84
2023-05-05T03:12:00.313Z,1004.83
2023-05-05T03:13:00.332Z,1004.83
2023-05-05T03:14:00.251Z,1004.86
2023-05-05T03:15:00.238Z,1004.83
2023-05-05T03:16:00.243Z,1004.75
2023-05-05T03:17:00.228Z,1004.80
2023-05-05T03:18:01.219Z,1004.78
2023-05-05T03:19:00.193Z,1004.80
2023-05-05T03:20:02.267Z,1004.85
2023-05-05T03:21:00.175Z,1004.83
2023-05-05T03:22:01.150Z,1004.83
2023-05-05T03:23:00.140Z,1004.85
2023-05-05T03:24:00.140Z,1004.91
2023-05-05T03:25:00.156Z,1004.82
2023-05-05T03:26:00.123Z,1004.84
2023-05-05T03:27:00.152Z,1004.81
2023-05-05T03:28:00.121Z,1004.80
2023-05-05T03:29:00.070Z,1004.80
2023-05-05T03:30:00.109Z,1004.79
2023-05-05T03:31:00.118Z,1004.83
2023-05-05T03:32:00.040Z,1004.81
2023-05-05T03:33:00.095Z,1004.80
2023-05-05T03:34:00.018Z,1004.74
2023-05-05T03:35:00.016Z,1004.83
2023-05-05T03:36:00.003Z,1004.81
2023-05-05T03:36:59.983Z,1004.86
2023-05-05T03:37:59.988Z,1004.78
2023-05-05T03:38:59.969Z,1004.83
2023-05-05T03:39:59.942Z,1004.80
2023-05-05T03:40:59.951Z,1004.85
2023-05-05T03:41:59.947Z,1004.86
2023-05-05T03:42:59.918Z,1004.85
2023-05-05T03:43:59.927Z,1004.86
2023-05-05T03:44:59.921Z,1004.84
2023-05-05T03:45:59.947Z,1004.87
2023-05-05T03:47:00.862Z,1004.84
2023-05-05T03:47:59.945Z,1004.89
2023-05-05T03:48:59.879Z,1004.84
2023-05-05T03:49:59.828Z,1004.87
2023-05-05T03:50:59.831Z,1004.85
2023-05-05T03:52:00.832Z,1004.84
2023-05-05T03:52:59.810Z,1004.87
2023-05-05T03:53:59.855Z,1004.86
2023-05-05T03:54:59.788Z,1004.84
2023-05-05T03:56:00.779Z,1004.88
2023-05-05T03:56:59.758Z,1004.86
2023-05-05T03:57:59.757Z,1004.94
2023-05-05T03:58:59.757Z,1004.98
2023-05-05T03:59:59.798Z,1004.89
2023-05-05T04:00:59.732Z,1004.89
2023-05-05T04:01:59.756Z,1004.89
2023-05-05T04:02:59.805Z,1004.96
2023-05-05T04:03:59.737Z,1004.89
2023-05-05T04:04:59.713Z,1004.87
2023-05-05T04:05:59.666Z,1004.89
2023-05-05T04:06:59.649Z,1004.92
2023-05-05T04:07:59.636Z,1004.90
2023-05-05T04:08:59.671Z,1004.94
2023-05-05T04:09:59.642Z,1004.86
2023-05-05T04:11:00.637Z,1004.81
2023-05-05T04:11:59.591Z,1004.90
2023-05-05T04:12:59.635Z,1004.85
2023-05-05T04:13:59.608Z,1004.83
2023-05-05T04:14:59.651Z,1004.90
2023-05-05T04:15:59.687Z,1004.87
2023-05-05T04:16:59.539Z,1004.85
2023-05-05T04:17:59.547Z,1004.89
2023-05-05T04:18:59.533Z,1004.97
2023-05-05T04:19:59.512Z,1004.93
2023-05-05T04:20:59.629Z,1004.94
2023-05-05T04:22:00.490Z,1004.94
2023-05-05T04:22:59.462Z,1005.00
2023-05-05T04:23:59.461Z,1004.96
2023-05-05T04:24:59.489Z,1004.93
2023-05-05T04:25:59.447Z,1004.95
2023-05-05T04:26:59.455Z,1004.91
2023-05-05T04:27:59.460Z,1004.93
2023-05-05T04:29:00.440Z,1004.93
2023-05-05T04:29:59.410Z,1004.90
2023-05-05T04:30:59.428Z,1004.95
2023-05-05T04:31:59.411Z,1004.94
2023-05-05T04:32:59.447Z,1004.97
2023-05-05T04:33:59.350Z,1004.96
2023-05-05T04:34:59.386Z,1004.98
2023-05-05T04:35:59.354Z,1004.96
2023-05-05T04:36:59.333Z,1004.96
2023-05-05T04:37:59.332Z,1004.98
2023-05-05T04:38:59.338Z,1005.00
2023-05-05T04:39:59.315Z,1005.03
2023-05-05T04:40:59.283Z,1005.00
2023-05-05T04:41:59.271Z,1005.00
2023-05-05T04:42:59.286Z,1005.05
2023-05-05T04:43:59.262Z,1005.02
2023-05-05T04:44:59.253Z,1005.03
2023-05-05T04:45:59.226Z,1005.05
2023-05-05T04:46:59.193Z,1005.03
2023-05-05T04:47:59.238Z,1005.03
2023-05-05T04:48:59.205Z,1005.12
2023-05-05T04:49:59.209Z,1005.02
2023-05-05T04:50:59.198Z,1005.09
2023-05-05T04:51:59.192Z,1005.05
2023-05-05T04:52:59.140Z,1005.08
2023-05-05T04:53:59.154Z,1005.12
2023-05-05T04:54:59.165Z,1005.16
2023-05-05T04:55:59.143Z,1005.13
2023-05-05T04:56:59.111Z,1005.14
2023-05-05T04:57:59.120Z,1005.12
2023-05-05T04:58:59.070Z,1005.14
2023-05-05T05:00:00.150Z,1005.18
2023-05-05T05:01:00.035Z,1005.13
2023-05-05T05:01:59.085Z,1005.16
2023-05-05T05:02:59.103Z,1005.17
2023-05-05T05:03:59.166Z,1005.15
2023-05-05T05:04:59.021Z,1005.17
2023-05-05T05:06:00.007Z,1005.17
2023-05-05T05:06:59.433Z,1005.15
2023-05-05T05:07:58.993Z,1005.14
2023-05-05T05:08:58.968Z,1005.15
2023-05-05T05:09:58.957Z,1005.13
2023-05-05T05:10:58.950Z,1005.15
2023-05-05T05:11:58.943Z,1005.14
2023-05-05T05:12:58.953Z,1005.15
2023-05-05T05:13:59.032Z,1005.21
2023-05-05T05:14:58.893Z,1005.14
2023-05-05T05:15:58.957Z,1005.17
2023-05-05T05:16:59.879Z,1005.21
2023-05-05T05:17:58.940Z,1005.12
2023-05-05T05:19:01.462Z,1005.11
2023-05-05T05:19:58.862Z,1005.11
2023-05-05T05:20:58.831Z,1005.12
2023-05-05T05:21:58.881Z,1005.15
2023-05-05T05:22:58.830Z,1005.06
2023-05-05T05:23:58.813Z,1005.05
2023-05-05T05:24:58.808Z,1005.04
2023-05-05T05:25:58.801Z,1005.07
2023-05-05T05:26:59.777Z,1005.02
2023-05-05T05:28:09.386Z,1005.08
2023-05-05T05:28:59.777Z,1004.99
2023-05-05T05:29:58.732Z,1005.01
2023-05-05T05:30:58.743Z,1005.00
2023-05-05T05:31:58.803Z,1005.12
2023-05-05T05:32:58.735Z,1005.08
2023-05-05T05:33:59.713Z,1005.10
2023-05-05T05:34:58.672Z,1005.09
2023-05-05T05:35:58.690Z,1005.16
2023-05-05T05:36:58.670Z,1005.02
2023-05-05T05:37:58.667Z,1005.04
2023-05-05T05:38:58.638Z,1005.06
2023-05-05T05:39:58.627Z,1005.03
2023-05-05T05:40:59.636Z,1005.04
2023-05-05T05:41:58.609Z,1005.04
2023-05-05T05:42:59.582Z,1005.08
2023-05-05T05:43:58.578Z,1005.10
2023-05-05T05:44:58.583Z,1005.15
2023-05-05T05:45:58.578Z,1005.06
2023-05-05T05:46:58.564Z,1005.08
2023-05-05T05:47:58.589Z,1005.05
2023-05-05T05:48:58.537Z,1005.02
2023-05-05T05:49:59.556Z,1005.01
2023-05-05T05:50:58.499Z,1005.01
2023-05-05T05:51:59.511Z,1005.05
2023-05-05T05:52:58.487Z,1005.03
2023-05-05T05:53:59.465Z,1004.99
2023-05-05T05:54:59.483Z,1005.04
2023-05-05T05:55:58.445Z,1004.99
2023-05-05T05:56:59.472Z,1004.97
2023-05-05T05:57:59.433Z,1005.01
2023-05-05T05:58:58.469Z,1005.03
2023-05-05T06:00:00.405Z,1005.07
2023-05-05T06:00:59.404Z,1005.12
2023-05-05T06:01:58.402Z,1005.03
2023-05-05T06:02:58.482Z,1005.06
2023-05-05T06:03:58.419Z,1005.07
2023-05-05T06:04:58.355Z,1005.01
2023-05-05T06:05:58.352Z,1005.05
2023-05-05T06:06:59.335Z,1005.13
2023-05-05T06:07:58.320Z,1005.09
2023-05-05T06:08:58.319Z,1005.06
2023-05-05T06:10:02.905Z,1005.06
2023-05-05T06:10:59.308Z,1005.10
2023-05-05T06:11:58.263Z,1005.13
2023-05-05T06:12:58.279Z,1005.10
2023-05-05T06:13:58.305Z,1005.11
2023-05-05T06:14:58.244Z,1005.10
2023-05-05T06:15:58.294Z,1005.14
2023-05-05T06:16:58.219Z,1005.18
2023-05-05T06:17:59.279Z,1005.10
2023-05-05T06:18:58.265Z,1005.11
2023-05-05T06:19:59.173Z,1005.15
2023-05-05T06:20:58.206Z,1005.12
2023-05-05T06:21:58.157Z,1005.17
2023-05-05T06:22:58.181Z,1005.12
2023-05-05T06:23:59.189Z,1005.14
2023-05-05T06:24:58.141Z,1005.12
2023-05-05T06:25:58.128Z,1005.21
2023-05-05T06:26:58.137Z,1005.16
2023-05-05T06:27:58.096Z,1005.19
2023-05-05T06:28:58.085Z,1005.23
2023-05-05T06:29:58.317Z,1005.14
2023-05-05T06:30:58.147Z,1005.17
2023-05-05T06:31:58.046Z,1005.17
2023-05-05T06:32:58.110Z,1005.15
2023-05-05T06:33:58.034Z,1005.18
2023-05-05T06:34:59.050Z,1005.19
2023-05-05T06:35:58.049Z,1005.15
2023-05-05T06:36:57.982Z,1005.18
2023-05-05T06:37:58.027Z,1005.21
2023-05-05T06:38:57.982Z,1005.25
2023-05-05T06:39:59.024Z,1005.21
2023-05-05T06:40:57.974Z,1005.20
2023-05-05T06:41:57.946Z,1005.18
2023-05-05T06:42:57.932Z,1005.22
2023-05-05T06:43:57.934Z,1005.18
2023-05-05T06:44:57.931Z,1005.15
2023-05-05T06:45:57.921Z,1005.21
2023-05-05T06:46:59.038Z,1005.19
2023-05-05T06:47:58.964Z,1005.20
2023-05-05T06:48:58.865Z,1005.22
2023-05-05T06:49:57.869Z,1005.23
2023-05-05T06:50:57.841Z,1005.26
2023-05-05T06:51:58.830Z,1005.20
2023-05-05T06:52:57.842Z,1005.22
2023-05-05T06:53:57.813Z,1005.31
2023-05-05T06:54:57.831Z,1005.24
2023-05-05T06:55:57.896Z,1005.32
2023-05-05T06:56:59.424Z,1005.25
2023-05-05T06:57:57.776Z,1005.25
2023-05-05T06:58:58.746Z,1005.27
2023-05-05T06:59:57.753Z,1005.24
2023-05-05T07:00:57.764Z,1005.15
2023-05-05T07:01:57.724Z,1005.19
2023-05-05T07:02:58.760Z,1005.22
2023-05-05T07:03:57.757Z,1005.14
2023-05-05T07:04:57.925Z,1005.16
2023-05-05T07:05:57.686Z,1005.18
2023-05-05T07:06:57.665Z,1005.14
2023-05-05T07:07:57.669Z,1005.13
2023-05-05T07:08:57.666Z,1005.13
2023-05-05T07:09:58.658Z,1005.11
2023-05-05T07:10:57.636Z,1005.07
2023-05-05T07:11:57.692Z,1005.06
2023-05-05T07:12:57.639Z,1005.05
2023-05-05T07:13:58.612Z,1005.06
2023-05-05T07:14:57.596Z,1005.05
2023-05-05T07:15:57.569Z,1005.04
2023-05-05T07:16:57.832Z,1005.07
2023-05-05T07:17:58.666Z,1005.02
2023-05-05T07:18:57.554Z,1005.03
2023-05-05T07:19:57.549Z,1005.04
2023-05-05T07:20:58.505Z,1005.09
2023-05-05T07:21:57.534Z,1005.14
2023-05-05T07:22:57.496Z,1005.10
2023-05-05T07:23:57.503Z,1005.13
2023-05-05T07:24:57.492Z,1005.17
2023-05-05T07:25:57.452Z,1005.14
2023-05-05T07:26:57.493Z,1005.12
2023-05-05T07:27:57.540Z,1005.04
2023-05-05T07:28:57.436Z,1005.09
2023-05-05T07:29:57.438Z,1005.11
2023-05-05T07:30:58.424Z,1005.08
2023-05-05T07:31:57.416Z,1005.05
2023-05-05T07:32:58.431Z,1005.11
2023-05-05T07:33:57.363Z,1005.12
2023-05-05T07:34:57.380Z,1005.12
2023-05-05T07:35:57.363Z,1005.16
2023-05-05T07:36:58.363Z,1005.09
2023-05-05T07:37:57.340Z,1005.15
2023-05-05T07:38:57.311Z,1005.17
2023-05-05T07:39:58.314Z,1005.22
2023-05-05T07:40:57.279Z,1005.13
2023-05-05T07:41:57.310Z,1005.15
2023-05-05T07:42:57.276Z,1005.10
2023-05-05T07:43:57.509Z,1005.10
2023-05-05T07:44:57.255Z,1005.12
2023-05-05T07:45:57.319Z,1005.15
2023-05-05T07:46:58.225Z,1005.16
2023-05-05T07:47:57.300Z,1005.14
2023-05-05T07:48:57.236Z,1005.17
2023-05-05T07:49:58.177Z,1005.17
2023-05-05T07:50:57.227Z,1005.15
2023-05-05T07:51:57.158Z,1005.22
2023-05-05T07:53:06.141Z,1005.21
2023-05-05T07:53:58.161Z,1005.12
2023-05-05T07:54:58.152Z,1005.14
2023-05-05T07:55:57.171Z,1005.12
2023-05-05T07:56:57.118Z,1005.11
2023-05-05T07:57:57.112Z,1005.15
2023-05-05T07:58:57.106Z,1005.17
2023-05-05T07:59:57.172Z,1005.14
2023-05-05T08:00:57.077Z,1005.21
2023-05-05T08:01:57.075Z,1005.12
2023-05-05T08:02:57.121Z,1005.13
2023-05-05T08:03:57.171Z,1005.21
2023-05-05T08:04:57.025Z,1005.15
2023-05-05T08:05:58.035Z,1005.14
2023-05-05T08:06:58.012Z,1005.13
2023-05-05T08:07:57.031Z,1005.16
2023-05-05T08:08:56.971Z,1005.12
2023-05-05T08:09:57.996Z,1005.15
2023-05-05T08:10:56.962Z,1005.12
2023-05-05T08:11:56.959Z,1005.17
2023-05-05T08:12:57.964Z,1005.11
2023-05-05T08:13:56.962Z,1005.12
2023-05-05T08:14:56.919Z,1005.05
2023-05-05T08:15:57.063Z,1005.09
2023-05-05T08:16:56.925Z,1005.09
2023-05-05T08:17:56.918Z,1005.03
2023-05-05T08:18:56.927Z,1005.06
2023-05-05T08:19:56.871Z,1005.08
2023-05-05T08:20:57.871Z,1005.04
2023-05-05T08:21:57.477Z,1005.04
2023-05-05T08:22:56.833Z,1005.05
2023-05-05T08:23:57.840Z,1005.00
2023-05-05T08:24:57.822Z,1005.00
2023-05-05T08:25:57.791Z,1005.04
2023-05-05T08:26:56.802Z,1005.00
2023-05-05T08:27:56.811Z,1004.96
2023-05-05T08:28:56.793Z,1004.98
2023-05-05T08:29:56.762Z,1005.00
2023-05-05T08:30:57.758Z,1005.00
2023-05-05T08:31:56.960Z,1005.00
2023-05-05T08:32:56.854Z,1004.99
2023-05-05T08:33:56.716Z,1004.93
2023-05-05T08:34:56.714Z,1004.95
2023-05-05T08:35:57.692Z,1005.01
2023-05-05T08:36:56.712Z,1004.94
2023-05-05T08:37:58.880Z,1004.94
2023-05-05T08:38:56.652Z,1004.94
2023-05-05T08:39:56.673Z,1004.96
2023-05-05T08:40:56.650Z,1004.95
2023-05-05T08:41:56.693Z,1004.95
2023-05-05T08:42:56.652Z,1004.99
2023-05-05T08:43:56.596Z,1004.99
2023-05-05T08:44:57.784Z,1004.95
2023-05-05T08:45:56.593Z,1004.96
2023-05-05T08:46:56.610Z,1005.03
2023-05-05T08:47:56.886Z,1004.98
2023-05-05T08:48:56.572Z,1005.00
2023-05-05T08:49:56.540Z,1004.96
2023-05-05T08:50:57.374Z,1005.00
2023-05-05T08:51:57.533Z,1004.95
2023-05-05T08:52:56.525Z,1004.96
2023-05-05T08:53:56.521Z,1004.96
2023-05-05T08:54:56.505Z,1005.00
2023-05-05T08:55:56.510Z,1004.94
2023-05-05T08:56:56.478Z,1004.89
2023-05-05T08:57:57.510Z,1004.91
2023-05-05T08:58:56.460Z,1004.94
2023-05-05T08:59:56.457Z,1004.92
2023-05-05T09:00:56.495Z,1004.88
2023-05-05T09:01:56.419Z,1004.88
2023-05-05T09:02:56.642Z,1004.90
2023-05-05T09:03:56.521Z,1004.92
2023-05-05T09:04:56.385Z,1004.88
2023-05-05T09:05:56.379Z,1004.89
2023-05-05T09:06:56.352Z,1004.88
2023-05-05T09:07:56.391Z,1004.94
2023-05-05T09:08:57.597Z,1004.92
2023-05-05T09:09:56.314Z,1004.88
2023-05-05T09:10:56.334Z,1004.93
2023-05-05T09:11:56.330Z,1004.90
2023-05-05T09:12:56.305Z,1004.84
2023-05-05T09:13:56.753Z,1004.83
2023-05-05T09:14:59.042Z,1004.88
2023-05-05T09:15:56.254Z,1004.86
2023-05-05T09:16:56.293Z,1004.80
2023-05-05T09:17:56.246Z,1004.81
2023-05-05T09:18:56.236Z,1004.77
2023-05-05T09:19:56.315Z,1004.82
2023-05-05T09:20:58.136Z,1004.81
2023-05-05T09:21:56.201Z,1004.80
2023-05-05T09:22:56.198Z,1004.87
2023-05-05T09:23:58.532Z,1004.84
2023-05-05T09:24:57.162Z,1004.86
2023-05-05T09:25:57.142Z,1004.83
2023-05-05T09:26:58.553Z,1004.86
2023-05-05T09:27:56.137Z,1004.89
2023-05-05T09:28:57.122Z,1004.83
2023-05-05T09:29:57.100Z,1004.86
2023-05-05T09:30:56.105Z,1004.88
2023-05-05T09:31:56.086Z,1004.84
2023-05-05T09:33:03.768Z,1004.79
2023-05-05T09:33:56.060Z,1004.79
2023-05-05T09:34:56.069Z,1004.80
2023-05-05T09:35:56.114Z,1004.77
2023-05-05T09:36:56.026Z,1004.79
2023-05-05T09:37:56.043Z,1004.81
2023-05-05T09:38:58.305Z,1004.73
2023-05-05T09:39:57.029Z,1004.77
2023-05-05T09:40:55.974Z,1004.74
2023-05-05T09:41:55.988Z,1004.74
2023-05-05T09:42:55.966Z,1004.76
2023-05-05T09:43:55.992Z,1004.74
2023-05-05T09:44:57.822Z,1004.75
2023-05-05T09:45:56.000Z,1004.74
2023-05-05T09:46:55.914Z,1004.72
2023-05-05T09:47:59.545Z,1004.74
2023-05-05T09:48:56.910Z,1004.72
2023-05-05T09:49:56.891Z,1004.70
2023-05-05T09:50:56.906Z,1004.73
2023-05-05T09:51:55.894Z,1004.66
2023-05-05T09:52:55.885Z,1004.70
2023-05-05T09:53:55.842Z,1004.63
2023-05-05T09:54:55.840Z,1004.62
2023-05-05T09:55:55.862Z,1004.61
2023-05-05T09:56:55.814Z,1004.66
2023-05-05T09:57:55.865Z,1004.58
2023-05-05T09:58:57.078Z,1004.58
2023-05-05T09:59:55.768Z,1004.68
2023-05-05T10:00:55.782Z,1004.55
2023-05-05T10:01:55.846Z,1004.62
2023-05-05T10:02:55.768Z,1004.57
2023-05-05T10:03:56.732Z,1004.62
2023-05-05T10:04:55.735Z,1004.68
2023-05-05T10:05:55.790Z,1004.60
2023-05-05T10:06:56.703Z,1004.57
2023-05-05T10:07:55.811Z,1004.59
2023-05-05T10:08:55.682Z,1004.52
2023-05-05T10:09:56.660Z,1004.50
2023-05-05T10:10:55.667Z,1004.50
2023-05-05T10:11:55.645Z,1004.51
2023-05-05T10:12:56.644Z,1004.49
2023-05-05T10:13:55.613Z,1004.52
2023-05-05T10:14:55.615Z,1004.47
2023-05-05T10:15:56.717Z,1004.46
2023-05-05T10:16:55.578Z,1004.42
2023-05-05T10:18:07.056Z,1004.45
2023-05-05T10:18:56.566Z,1004.40
2023-05-05T10:19:55.563Z,1004.42
2023-05-05T10:20:55.547Z,1004.39
2023-05-05T10:21:56.530Z,1004.42
2023-05-05T10:22:55.561Z,1004.39
2023-05-05T10:23:56.889Z,1004.45
2023-05-05T10:24:55.488Z,1004.48
2023-05-05T10:25:55.503Z,1004.39
2023-05-05T10:26:55.510Z,1004.44
2023-05-05T10:27:55.466Z,1004.46
2023-05-05T10:28:55.481Z,1004.44
2023-05-05T10:29:55.459Z,1004.41
2023-05-05T10:30:55.430Z,1004.36
2023-05-05T10:31:55.474Z,1004.37
2023-05-05T10:33:55.588Z,1004.41
2023-05-05T10:34:55.508Z,1004.39
2023-05-05T10:35:55.379Z,1004.38
2023-05-05T10:36:56.379Z,1004.22
2023-05-05T10:37:55.374Z,1004.23
2023-05-05T10:38:55.378Z,1004.25
2023-05-05T10:39:55.441Z,1004.28
2023-05-05T10:40:55.397Z,1004.30
2023-05-05T10:41:55.304Z,1004.32
2023-05-05T10:42:55.308Z,1004.32
2023-05-05T10:43:55.324Z,1004.24
2023-05-05T10:44:56.304Z,1004.23
2023-05-05T10:45:55.502Z,1004.23
2023-05-05T10:46:55.298Z,1004.26
2023-05-05T10:47:55.297Z,1004.17
2023-05-05T10:48:55.273Z,1004.18
2023-05-05T10:49:55.216Z,1004.17
2023-05-05T10:50:55.245Z,1004.17
2023-05-05T10:51:55.191Z,1004.19
2023-05-05T10:52:55.210Z,1004.16
2023-05-05T10:53:55.227Z,1004.15
2023-05-05T10:54:55.168Z,1004.11
2023-05-05T10:55:56.290Z,1004.11
2023-05-05T10:56:55.192Z,1004.10
2023-05-05T10:57:55.152Z,1004.10
2023-05-05T10:59:00.137Z,1004.07
2023-05-05T10:59:56.133Z,1004.13
2023-05-05T11:00:56.137Z,1004.10
2023-05-05T11:01:55.126Z,1004.06
2023-05-05T11:02:55.116Z,1004.04
2023-05-05T11:03:56.708Z,1004.03
2023-05-05T11:04:55.065Z,1004.03
2023-05-05T11:05:56.044Z,1004.03
2023-05-05T11:06:55.055Z,1004.02
2023-05-05T11:07:55.038Z,1003.96
2023-05-05T11:08:55.024Z,1004.02
2023-05-05T11:09:55.004Z,1003.93
2023-05-05T11:10:54.987Z,1003.98
2023-05-05T11:11:55.207Z,1003.95
2023-05-05T11:12:55.018Z,1004.04
2023-05-05T11:13:54.988Z,1003.98
2023-05-05T11:14:54.962Z,1003.97
2023-05-05T11:15:54.957Z,1003.97
2023-05-05T11:16:54.980Z,1003.98
2023-05-05T11:17:54.973Z,1003.97
2023-05-05T11:18:55.920Z,1004.00
2023-05-05T11:19:54.897Z,1003.96
2023-05-05T11:20:54.898Z,1003.90
2023-05-05T11:21:54.900Z,1003.93
2023-05-05T11:22:55.864Z,1003.96
2023-05-05T11:23:54.864Z,1003.87
2023-05-05T11:24:54.833Z,1003.93
2023-05-05T11:25:55.830Z,1003.86
2023-05-05T11:26:54.828Z,1003.81
2023-05-05T11:27:54.861Z,1003.81
2023-05-05T11:28:54.809Z,1003.81
2023-05-05T11:29:54.800Z,1003.80
2023-05-05T11:30:54.873Z,1003.80
2023-05-05T11:31:54.778Z,1003.73
2023-05-05T11:32:54.885Z,1003.79
2023-05-05T11:33:54.763Z,1003.75
2023-05-05T11:34:54.728Z,1003.75
2023-05-05T11:35:55.767Z,1003.73
2023-05-05T11:36:55.727Z,1003.74
2023-05-05T11:37:54.720Z,1003.74
2023-05-05T11:38:54.676Z,1003.66
2023-05-05T11:39:55.690Z,1003.67
2023-05-05T11:40:54.683Z,1003.67
2023-05-05T11:41:55.671Z,1003.68
2023-05-05T11:42:55.666Z,1003.66
2023-05-05T11:43:54.851Z,1003.63
2023-05-05T11:44:54.640Z,1003.62
2023-05-05T11:45:54.694Z,1003.65
2023-05-05T11:46:54.613Z,1003.63
2023-05-05T11:47:55.078Z,1003.61
2023-05-05T11:48:54.577Z,1003.63
2023-05-05T11:49:54.574Z,1003.63
2023-05-05T11:50:55.567Z,1003.63
2023-05-05T11:51:54.552Z,1003.60
2023-05-05T11:52:54.624Z,1003.64
2023-05-05T11:53:54.511Z,1003.62
2023-05-05T11:54:54.548Z,1003.64
2023-05-05T11:55:54.495Z,1003.68
2023-05-05T11:56:54.521Z,1003.71
2023-05-05T11:57:54.492Z,1003.64
2023-05-05T11:58:54.467Z,1003.61
2023-05-05T11:59:54.499Z,1003.64
2023-05-05T12:00:54.487Z,1003.68
2023-05-05T12:01:54.457Z,1003.63
2023-05-05T12:02:54.564Z,1003.68
2023-05-05T12:03:54.528Z,1003.72
2023-05-05T12:04:54.470Z,1003.62
2023-05-05T12:05:54.388Z,1003.67